Time;durP1;ratioP1;P1;durP2;ratioP2;P2;SDS_P1;SDS_P2;PMS_P1;PMS_P2;Temp;Humidity;BMP_temperature;BMP_pressure;BME280_temperature;BME280_humidity;BME280_pressure;Samples;Min_cycle;Max_cycle;Signal;HPM_P1;HPM_P2
2024/04/06 00:01:22;;;;;;;3.33;1.80;;;16.90;99.90;;;;;;5075626;28;20450;-79
2024/04/06 00:03:49;;;;;;;1.97;1.87;;;16.90;99.90;;;;;;5053765;28;20840;-83
2024/04/06 00:06:16;;;;;;;2.53;2.43;;;16.90;99.90;;;;;;5056882;28;21010;-77
2024/04/06 00:08:43;;;;;;;2.00;1.90;;;16.90;99.90;;;;;;5042377;28;20457;-82
2024/04/06 00:11:11;;;;;;;2.20;1.90;;;16.90;99.90;;;;;;5054832;28;20479;-78
2024/04/06 00:13:38;;;;;;;2.10;1.90;;;16.80;99.90;;;;;;5055450;28;20515;-80
2024/04/06 00:16:05;;;;;;;2.10;2.00;;;16.80;99.90;;;;;;5056361;28;20446;-79
2024/04/06 00:18:33;;;;;;;2.60;2.40;;;16.80;99.90;;;;;;5057592;28;20490;-79
2024/04/06 00:20:59;;;;;;;2.13;2.00;;;16.70;99.90;;;;;;5055113;28;20477;-78
2024/04/06 00:23:28;;;;;;;1.93;1.83;;;16.70;99.90;;;;;;5040203;28;20454;-79
2024/04/06 00:25:54;;;;;;;1.97;1.87;;;16.70;99.90;;;;;;5056094;28;20458;-79
2024/04/06 00:28:24;;;;;;;2.30;2.20;;;16.70;99.90;;;;;;5058229;28;20425;-80
2024/04/06 00:30:50;;;;;;;2.03;1.93;;;16.70;99.90;;;;;;5058377;28;20475;-84
2024/04/06 00:33:17;;;;;;;2.30;2.00;;;16.70;99.90;;;;;;5057175;28;20450;-78
2024/04/06 00:35:44;;;;;;;1.70;1.60;;;16.70;99.90;;;;;;5055859;28;20447;-80
2024/04/06 00:38:11;;;;;;;2.10;1.90;;;16.60;99.90;;;;;;5057936;28;20474;-77
2024/04/06 00:40:37;;;;;;;2.27;1.50;;;16.70;99.90;;;;;;5060187;28;20517;-80
2024/04/06 00:43:05;;;;;;;2.00;1.90;;;16.70;99.90;;;;;;5054510;28;20438;-78
2024/04/06 00:45:33;;;;;;;2.33;1.70;;;16.60;99.90;;;;;;5052977;28;20455;-80
2024/04/06 00:48:00;;;;;;;2.10;2.00;;;16.60;99.90;;;;;;5040370;28;20500;-81
2024/04/06 00:50:27;;;;;;;2.27;1.87;;;16.60;99.90;;;;;;5054413;28;20474;-78
2024/04/06 00:52:55;;;;;;;1.90;1.80;;;16.60;99.90;;;;;;5052244;28;20719;-79
2024/04/06 00:55:21;;;;;;;1.90;1.80;;;16.60;99.90;;;;;;5054360;28;20505;-77
2024/04/06 00:57:48;;;;;;;1.80;1.70;;;16.50;99.90;;;;;;5048811;28;20490;-77
2024/04/06 01:00:15;;;;;;;2.40;2.20;;;16.60;99.90;;;;;;5055089;28;21075;-77
2024/04/06 01:02:43;;;;;;;1.83;1.73;;;16.60;99.90;;;;;;5049620;28;20535;-80
2024/04/06 01:05:09;;;;;;;1.70;1.60;;;16.50;99.90;;;;;;5057586;28;21112;-78
2024/04/06 01:07:40;;;;;;;2.17;1.73;;;16.50;99.90;;;;;;5053072;28;20844;-79
2024/04/06 01:10:06;;;;;;;2.20;2.10;;;16.50;99.90;;;;;;5058227;28;20492;-79
2024/04/06 01:12:35;;;;;;;2.00;1.90;;;16.50;99.90;;;;;;5051347;28;20533;-78
2024/04/06 01:15:02;;;;;;;2.07;1.90;;;16.50;99.90;;;;;;5051478;28;20438;-78
2024/04/06 01:17:29;;;;;;;2.00;1.90;;;16.50;99.90;;;;;;5050049;28;20453;-80
2024/04/06 01:19:57;;;;;;;2.60;1.80;;;16.50;99.90;;;;;;5050364;28;20472;-79
2024/04/06 01:22:24;;;;;;;1.90;1.80;;;16.40;99.90;;;;;;5050832;28;20492;-78
2024/04/06 01:24:51;;;;;;;1.80;1.70;;;16.40;99.90;;;;;;5054746;28;20543;-80
2024/04/06 01:27:19;;;;;;;2.03;1.90;;;16.40;99.90;;;;;;5050755;28;20459;-80
2024/04/06 01:29:45;;;;;;;2.00;1.90;;;16.30;99.90;;;;;;5049667;28;20467;-78
2024/04/06 01:32:13;;;;;;;2.07;1.80;;;16.30;99.90;;;;;;5051581;28;21220;-77
2024/04/06 01:34:39;;;;;;;2.13;2.03;;;16.30;99.90;;;;;;5051334;28;20545;-78
2024/04/06 01:37:06;;;;;;;4.23;2.00;;;16.20;99.90;;;;;;5045045;28;20541;-77
2024/04/06 01:39:34;;;;;;;1.80;1.70;;;16.30;99.90;;;;;;5051952;28;20485;-80
2024/04/06 01:42:02;;;;;;;2.00;1.90;;;16.20;99.90;;;;;;5050477;28;20565;-77
2024/04/06 01:44:28;;;;;;;2.07;1.97;;;16.20;99.90;;;;;;5053547;28;20489;-78
2024/04/06 01:46:55;;;;;;;1.87;1.77;;;16.20;99.90;;;;;;5050047;28;21109;-78
2024/04/06 01:49:22;;;;;;;2.00;1.90;;;16.20;99.90;;;;;;5048801;28;20623;-79
2024/04/06 01:51:49;;;;;;;2.73;2.50;;;16.20;99.90;;;;;;5051887;28;20468;-78
2024/04/06 01:54:15;;;;;;;3.13;1.80;;;16.20;99.90;;;;;;5055110;28;20464;-79
2024/04/06 01:56:42;;;;;;;2.17;2.07;;;16.10;99.90;;;;;;5051792;28;20565;-79
2024/04/06 01:59:10;;;;;;;2.60;1.93;;;16.10;99.90;;;;;;5046951;28;20542;-79
2024/04/06 02:01:37;;;;;;;2.20;2.10;;;16.10;99.90;;;;;;5048434;28;20531;-79
2024/04/06 02:04:04;;;;;;;2.37;2.27;;;16.10;99.90;;;;;;5059118;28;20441;-80
2024/04/06 02:06:31;;;;;;;1.80;1.70;;;16.10;99.90;;;;;;5048119;28;20461;-82
2024/04/06 02:08:57;;;;;;;1.93;1.83;;;16.00;99.90;;;;;;5049780;28;20476;-80
2024/04/06 02:11:24;;;;;;;2.03;1.93;;;16.00;99.90;;;;;;5039480;28;21231;-80
2024/04/06 02:13:51;;;;;;;2.00;1.87;;;16.00;99.90;;;;;;5047995;28;20457;-82
2024/04/06 02:16:19;;;;;;;3.67;2.23;;;15.90;99.90;;;;;;5052741;28;20496;-79
2024/04/06 02:18:45;;;;;;;2.43;2.00;;;15.70;99.90;;;;;;5052273;28;20450;-80
2024/04/06 02:21:13;;;;;;;3.63;1.80;;;15.70;99.90;;;;;;5051553;28;20474;-81
2024/04/06 02:23:39;;;;;;;3.80;2.40;;;15.80;99.90;;;;;;5048705;28;20449;-79
2024/04/06 02:26:07;;;;;;;1.77;1.67;;;15.80;99.90;;;;;;5047376;28;20484;-79
2024/04/06 02:28:33;;;;;;;1.97;1.87;;;15.80;99.90;;;;;;5049327;28;20530;-81
2024/04/06 02:31:00;;;;;;;1.90;1.80;;;15.80;99.90;;;;;;5048208;28;20485;-81
2024/04/06 02:33:28;;;;;;;2.37;1.83;;;15.70;99.90;;;;;;5056288;28;20548;-80
2024/04/06 02:35:55;;;;;;;1.97;1.87;;;15.70;99.90;;;;;;5048907;28;20544;-79
2024/04/06 02:38:21;;;;;;;2.00;1.90;;;15.60;99.90;;;;;;5050521;28;20516;-79
2024/04/06 02:40:49;;;;;;;2.10;2.00;;;15.60;99.90;;;;;;5051067;28;20581;-79
2024/04/06 02:43:15;;;;;;;2.37;2.27;;;15.60;99.90;;;;;;5055117;28;20520;-81
2024/04/06 02:45:42;;;;;;;1.83;1.73;;;15.70;99.90;;;;;;5055042;28;21280;-78
2024/04/06 02:48:08;;;;;;;2.60;2.00;;;15.70;99.90;;;;;;5054695;28;20553;-80
2024/04/06 02:50:37;;;;;;;2.90;2.70;;;15.70;99.90;;;;;;5046950;28;20565;-81
2024/04/06 02:53:04;;;;;;;2.10;2.00;;;15.70;99.90;;;;;;5051560;28;20552;-80
2024/04/06 02:55:31;;;;;;;2.23;1.93;;;15.70;99.90;;;;;;5051266;28;20535;-80
2024/04/06 02:57:57;;;;;;;2.10;2.00;;;15.70;99.90;;;;;;5049063;28;20965;-80
2024/04/06 03:00:25;;;;;;;1.80;1.70;;;15.70;99.90;;;;;;5053567;28;21296;-80
2024/04/06 03:02:52;;;;;;;2.27;2.07;;;15.70;99.90;;;;;;5050065;28;20496;-79
2024/04/06 03:05:19;;;;;;;2.23;2.13;;;15.60;99.90;;;;;;5052683;28;20456;-81
2024/04/06 03:07:47;;;;;;;1.80;1.70;;;15.50;99.90;;;;;;5054262;28;21068;-79
2024/04/06 03:10:14;;;;;;;2.70;2.50;;;15.40;99.90;;;;;;5062449;28;21230;-80
2024/04/06 03:12:41;;;;;;;1.80;1.70;;;15.30;99.90;;;;;;5057193;28;20450;-80
2024/04/06 03:15:08;;;;;;;3.90;2.10;;;15.20;99.90;;;;;;5051583;28;20491;-80
2024/04/06 03:17:34;;;;;;;2.20;2.10;;;15.10;99.90;;;;;;5054564;28;20498;-80
2024/04/06 03:20:04;;;;;;;2.00;1.90;;;15.00;99.90;;;;;;5053383;28;20497;-78
2024/04/06 03:22:30;;;;;;;2.30;2.10;;;14.90;99.90;;;;;;5053119;28;20481;-80
2024/04/06 03:24:59;;;;;;;5.03;2.53;;;14.90;99.90;;;;;;5052107;28;20502;-79
2024/04/06 03:27:26;;;;;;;2.30;2.17;;;14.90;99.90;;;;;;5058414;28;20507;-80
2024/04/06 03:29:53;;;;;;;2.70;2.50;;;14.90;99.90;;;;;;5051089;28;20488;-79
2024/04/06 03:32:19;;;;;;;1.90;1.80;;;14.90;99.90;;;;;;5053014;28;20472;-78
2024/04/06 03:34:46;;;;;;;2.33;2.13;;;14.80;99.90;;;;;;5054634;28;20450;-80
2024/04/06 03:37:13;;;;;;;2.27;2.17;;;14.80;99.90;;;;;;5052870;28;20496;-80
2024/04/06 03:39:40;;;;;;;2.20;2.10;;;14.70;99.90;;;;;;5053903;28;20475;-77
2024/04/06 03:42:09;;;;;;;2.57;2.37;;;14.70;99.90;;;;;;5053270;28;20516;-79
2024/04/06 03:44:35;;;;;;;1.93;1.83;;;14.60;99.90;;;;;;5054030;28;20459;-80
2024/04/06 03:47:03;;;;;;;1.90;1.80;;;14.70;99.90;;;;;;5057527;28;20953;-81
2024/04/06 03:49:29;;;;;;;1.80;1.70;;;14.60;99.90;;;;;;5035039;28;21203;-79
2024/04/06 03:51:56;;;;;;;2.00;1.90;;;14.60;99.90;;;;;;5061318;28;20455;-78
2024/04/06 03:54:22;;;;;;;2.10;2.00;;;14.60;99.90;;;;;;5053009;28;20447;-79
2024/04/06 03:56:49;;;;;;;2.20;2.10;;;14.50;99.90;;;;;;5052213;28;20996;-80
2024/04/06 03:59:17;;;;;;;2.17;1.93;;;14.50;99.90;;;;;;5047922;28;20553;-82
2024/04/06 04:01:44;;;;;;;2.10;2.00;;;14.50;99.90;;;;;;5048005;28;20581;-80
2024/04/06 04:04:10;;;;;;;2.60;2.13;;;14.50;99.90;;;;;;5051881;28;20913;-80
2024/04/06 04:06:38;;;;;;;2.70;2.37;;;14.50;99.90;;;;;;5050155;28;20460;-80
2024/04/06 04:09:06;;;;;;;2.20;2.10;;;14.50;99.90;;;;;;5049324;28;20505;-81
2024/04/06 04:11:33;;;;;;;2.27;2.07;;;14.50;99.90;;;;;;5053553;28;20473;-79
2024/04/06 04:13:59;;;;;;;4.20;2.67;;;14.50;99.90;;;;;;5035182;28;20546;-81
2024/04/06 04:16:28;;;;;;;2.40;2.00;;;14.50;99.90;;;;;;5052013;28;20526;-81
2024/04/06 04:18:55;;;;;;;1.90;1.80;;;14.60;99.90;;;;;;5046280;28;20479;-79
2024/04/06 04:21:22;;;;;;;2.13;1.83;;;14.70;99.90;;;;;;5051657;28;21359;-79
2024/04/06 04:23:48;;;;;;;2.17;2.00;;;14.70;99.90;;;;;;5049748;28;20504;-79
2024/04/06 04:26:16;;;;;;;1.80;1.70;;;14.80;99.90;;;;;;5051411;28;20488;-78
2024/04/06 04:28:42;;;;;;;2.13;2.03;;;14.90;99.90;;;;;;5054435;28;20453;-80
2024/04/06 04:31:14;;;;;;;2.03;1.80;;;15.00;99.90;;;;;;5050455;28;20479;-79
2024/04/06 04:33:43;;;;;;;2.33;2.23;;;15.00;99.90;;;;;;5054903;28;20450;-80
2024/04/06 04:36:12;;;;;;;2.27;2.07;;;15.00;99.90;;;;;;5051553;28;20460;-80
2024/04/06 04:38:38;;;;;;;3.97;2.30;;;15.10;99.90;;;;;;5049675;28;20509;-80
2024/04/06 04:41:05;;;;;;;2.00;1.90;;;15.10;99.90;;;;;;5050146;28;20560;-81
2024/04/06 04:43:32;;;;;;;2.30;2.00;;;15.10;99.90;;;;;;5060166;28;20476;-82
2024/04/06 04:45:59;;;;;;;2.00;1.90;;;15.10;99.90;;;;;;5052158;28;20453;-81
2024/04/06 04:48:25;;;;;;;2.10;2.00;;;15.10;99.90;;;;;;5051551;28;21481;-80
2024/04/06 04:50:54;;;;;;;2.00;1.90;;;15.00;99.90;;;;;;5049653;28;20567;-82
2024/04/06 04:53:20;;;;;;;2.37;2.17;;;15.10;99.90;;;;;;5049710;28;20471;-79
2024/04/06 04:55:47;;;;;;;1.97;1.87;;;15.10;99.90;;;;;;5053878;28;20499;-80
2024/04/06 04:58:13;;;;;;;2.83;2.63;;;15.10;99.90;;;;;;5049782;28;20488;-79
2024/04/06 05:00:41;;;;;;;1.90;1.80;;;15.00;99.90;;;;;;5049233;28;20587;-80
2024/04/06 05:03:08;;;;;;;2.30;1.97;;;14.90;99.90;;;;;;5051496;28;20848;-81
2024/04/06 05:05:35;;;;;;;2.23;2.13;;;14.80;99.90;;;;;;5052017;28;20530;-80
2024/04/06 05:08:04;;;;;;;2.23;2.00;;;14.70;99.90;;;;;;5049038;28;20482;-81
2024/04/06 05:10:31;;;;;;;2.20;2.10;;;14.70;99.90;;;;;;5048066;28;20528;-80
2024/04/06 05:12:57;;;;;;;2.07;1.93;;;14.70;99.90;;;;;;5051625;28;21432;-80
2024/04/06 05:15:24;;;;;;;4.40;2.10;;;14.80;99.90;;;;;;5053645;28;20501;-80
2024/04/06 05:17:50;;;;;;;2.50;2.30;;;14.90;99.90;;;;;;5047778;28;20459;-79
2024/04/06 05:20:18;;;;;;;1.83;1.73;;;15.00;99.90;;;;;;5051793;28;20559;-80
2024/04/06 05:22:44;;;;;;;4.53;2.47;;;15.00;99.90;;;;;;5049357;28;23106;-80
2024/04/06 05:25:13;;;;;;;2.50;2.40;;;15.00;99.90;;;;;;5032144;28;21031;-79
2024/04/06 05:27:39;;;;;;;2.20;2.10;;;15.00;99.90;;;;;;5051934;28;21049;-79
2024/04/06 05:30:07;;;;;;;2.60;2.40;;;15.00;99.90;;;;;;5050088;28;20529;-81
2024/04/06 05:32:33;;;;;;;2.03;1.93;;;15.10;99.90;;;;;;5054564;28;20472;-81
2024/04/06 05:35:00;;;;;;;2.13;2.03;;;15.10;99.90;;;;;;5051365;28;20482;-80
2024/04/06 05:37:26;;;;;;;2.07;1.93;;;15.10;99.90;;;;;;5051430;28;20455;-80
2024/04/06 05:39:53;;;;;;;1.90;1.80;;;15.20;99.90;;;;;;5049293;28;20477;-79
2024/04/06 05:42:21;;;;;;;2.30;2.10;;;15.10;99.90;;;;;;5047579;28;20478;-80
2024/04/06 05:44:48;;;;;;;2.63;2.43;;;15.10;99.90;;;;;;5035504;28;20873;-80
2024/04/06 05:47:15;;;;;;;2.30;2.10;;;15.10;99.90;;;;;;5055735;28;20447;-80
2024/04/06 05:49:42;;;;;;;3.87;1.90;;;15.10;99.90;;;;;;5033094;28;20234;-79
2024/04/06 05:52:09;;;;;;;2.23;2.03;;;15.10;99.90;;;;;;5056051;28;20551;-80
2024/04/06 05:54:36;;;;;;;2.00;1.90;;;15.20;99.90;;;;;;5057050;28;20499;-79
2024/04/06 05:57:03;;;;;;;2.63;2.43;;;15.20;99.90;;;;;;5059044;28;20492;-78
2024/04/06 05:59:32;;;;;;;2.47;2.27;;;15.20;99.90;;;;;;5050730;28;20471;-79
2024/04/06 06:01:58;;;;;;;3.17;1.97;;;15.20;99.90;;;;;;5058235;28;21054;-78
2024/04/06 06:04:26;;;;;;;1.90;1.80;;;15.30;99.90;;;;;;5040794;28;20828;-78
2024/04/06 06:06:52;;;;;;;1.97;1.87;;;15.30;99.90;;;;;;5052774;28;20953;-84
2024/04/06 06:09:19;;;;;;;2.80;2.00;;;15.40;99.90;;;;;;5052778;28;20470;-80
2024/04/06 06:11:46;;;;;;;2.27;1.83;;;15.50;99.90;;;;;;5033652;28;21359;-79
2024/04/06 06:14:13;;;;;;;3.40;2.00;;;15.60;99.90;;;;;;5054615;28;20517;-78
2024/04/06 06:16:41;;;;;;;1.70;1.60;;;15.70;99.90;;;;;;5053921;28;20470;-80
2024/04/06 06:19:08;;;;;;;2.67;2.47;;;15.80;99.90;;;;;;5054861;28;20680;-81
2024/04/06 06:21:35;;;;;;;2.22;2.03;;;15.90;99.90;;;;;;5055248;28;20473;-80
2024/04/06 06:24:03;;;;;;;2.33;2.13;;;16.10;99.90;;;;;;5040974;28;20241;-82
2024/04/06 06:26:29;;;;;;;3.43;2.47;;;16.10;99.90;;;;;;5056427;28;20491;-79
2024/04/06 06:28:57;;;;;;;2.23;2.13;;;16.20;99.90;;;;;;5058617;28;20492;-80
2024/04/06 06:31:23;;;;;;;1.90;1.80;;;16.30;99.90;;;;;;5059249;28;20855;-79
2024/04/06 06:33:53;;;;;;;2.80;2.00;;;16.40;99.90;;;;;;5056894;28;20490;-83
2024/04/06 06:36:19;;;;;;;2.27;1.83;;;16.40;99.90;;;;;;5046206;28;20462;-79
2024/04/06 06:38:48;;;;;;;2.10;2.00;;;16.40;99.90;;;;;;5063341;28;21575;-79
2024/04/06 06:41:16;;;;;;;2.43;2.23;;;16.40;99.90;;;;;;5062911;28;21218;-80
2024/04/06 06:43:42;;;;;;;1.80;1.70;;;16.50;99.90;;;;;;5061932;28;20467;-80
2024/04/06 06:46:10;;;;;;;2.63;2.43;;;16.50;99.90;;;;;;5059771;28;20490;-82
2024/04/06 06:48:36;;;;;;;2.57;2.47;;;16.60;99.90;;;;;;5062726;28;20468;-79
2024/04/06 06:51:06;;;;;;;2.73;2.53;;;16.70;99.90;;;;;;5041719;28;20459;-85
2024/04/06 06:53:32;;;;;;;14.17;5.90;;;16.80;99.90;;;;;;5056386;28;20495;-84
2024/04/06 06:55:59;;;;;;;5.40;3.00;;;16.90;99.90;;;;;;5054652;28;20463;-82
2024/04/06 06:58:25;;;;;;;3.10;2.90;;;16.90;99.90;;;;;;5057775;28;21486;-79
2024/04/06 07:00:53;;;;;;;5.33;3.53;;;16.90;99.90;;;;;;5041454;28;20474;-80
2024/04/06 07:03:19;;;;;;;2.90;2.70;;;16.90;99.90;;;;;;5037198;28;20519;-78
2024/04/06 07:05:46;;;;;;;2.60;2.50;;;16.90;99.90;;;;;;5053182;28;20498;-78
2024/04/06 07:08:14;;;;;;;2.50;2.30;;;16.90;99.90;;;;;;5055947;28;20467;-80
2024/04/06 07:10:41;;;;;;;2.33;2.23;;;16.90;99.90;;;;;;5057907;28;20470;-82
2024/04/06 07:13:08;;;;;;;2.47;2.27;;;17.00;99.90;;;;;;5053980;28;20462;-81
2024/04/06 07:15:35;;;;;;;2.30;2.10;;;17.00;99.90;;;;;;5054806;28;20454;-79
2024/04/06 07:18:01;;;;;;;2.00;1.90;;;17.10;99.90;;;;;;5060864;28;20466;-82
2024/04/06 07:20:29;;;;;;;2.17;2.07;;;17.20;99.90;;;;;;5052900;28;20483;-80
2024/04/06 07:22:55;;;;;;;2.10;2.00;;;17.20;99.90;;;;;;5062977;28;20514;-80
2024/04/06 07:25:24;;;;;;;4.33;2.10;;;17.40;99.90;;;;;;5054728;28;20514;-80
2024/04/06 07:27:50;;;;;;;2.70;2.50;;;17.60;99.90;;;;;;5050288;28;20443;-79
2024/04/06 07:30:17;;;;;;;2.83;2.00;;;17.70;99.90;;;;;;5053660;28;20505;-78
2024/04/06 07:32:43;;;;;;;3.40;1.90;;;17.80;99.90;;;;;;5051458;28;20491;-81
2024/04/06 07:35:11;;;;;;;2.00;1.80;;;17.90;99.90;;;;;;5051089;28;20443;-80
2024/04/06 07:37:37;;;;;;;2.50;1.80;;;18.00;99.90;;;;;;5057601;28;20544;-79
2024/04/06 07:40:05;;;;;;;2.00;1.90;;;18.00;99.90;;;;;;5054530;28;21012;-80
2024/04/06 07:42:33;;;;;;;2.47;2.27;;;18.10;99.90;;;;;;5062554;28;20509;-79
2024/04/06 07:45:00;;;;;;;2.07;1.90;;;18.20;99.90;;;;;;5052932;28;20543;-80
2024/04/06 07:47:28;;;;;;;2.27;2.17;;;18.20;99.90;;;;;;5055487;28;20960;-81
2024/04/06 07:49:56;;;;;;;1.97;1.77;;;18.30;99.90;;;;;;5052667;28;20511;-80
2024/04/06 07:52:22;;;;;;;2.10;2.00;;;18.40;99.90;;;;;;5053431;28;20514;-80
2024/04/06 07:54:50;;;;;;;2.03;1.93;;;18.40;99.90;;;;;;5055040;28;20494;-79
2024/04/06 07:57:16;;;;;;;2.50;2.23;;;18.50;99.90;;;;;;5056393;28;20542;-81
2024/04/06 07:59:45;;;;;;;2.13;1.93;;;18.60;99.90;;;;;;5057342;28;20482;-81
2024/04/06 08:02:11;;;;;;;2.40;1.70;;;18.60;99.90;;;;;;5059975;28;20554;-79
2024/04/06 08:04:39;;;;;;;2.27;1.60;;;18.70;99.90;;;;;;5055407;28;20483;-80
2024/04/06 08:07:06;;;;;;;2.50;1.50;;;18.80;99.90;;;;;;5055072;28;20447;-80
2024/04/06 08:09:34;;;;;;;1.63;1.53;;;18.90;99.90;;;;;;5063603;28;21403;-81
2024/04/06 08:12:01;;;;;;;2.13;1.60;;;18.90;99.90;;;;;;5043871;28;20450;-81
2024/04/06 08:14:28;;;;;;;1.80;1.70;;;19.10;99.90;;;;;;5052350;28;20502;-80
2024/04/06 08:16:56;;;;;;;2.40;1.83;;;19.10;99.90;;;;;;5061092;28;21223;-79
2024/04/06 08:19:23;;;;;;;1.80;1.70;;;19.10;99.90;;;;;;5055820;28;20470;-79
2024/04/06 08:21:49;;;;;;;2.30;1.60;;;19.20;99.90;;;;;;5052624;28;20518;-80
2024/04/06 08:24:17;;;;;;;1.73;1.63;;;19.20;99.90;;;;;;5053122;28;20505;-78
2024/04/06 08:26:44;;;;;;;1.97;1.77;;;19.20;99.90;;;;;;5052197;28;20597;-80
2024/04/06 08:29:11;;;;;;;3.00;1.60;;;19.20;99.90;;;;;;5052555;28;20951;-83
2024/04/06 08:31:38;;;;;;;2.50;1.70;;;19.20;99.90;;;;;;5063709;28;20475;-82
2024/04/06 08:34:08;;;;;;;2.27;1.60;;;19.20;99.90;;;;;;5052393;28;20453;-82
2024/04/06 08:36:35;;;;;;;1.70;1.60;;;19.20;99.90;;;;;;5057877;28;20498;-81
2024/04/06 08:39:04;;;;;;;1.90;1.50;;;19.20;99.90;;;;;;5055093;28;20521;-82
2024/04/06 08:41:31;;;;;;;1.57;1.47;;;19.20;99.90;;;;;;5056373;28;20974;-81
2024/04/06 08:44:00;;;;;;;1.97;1.60;;;19.30;99.90;;;;;;5057360;28;20513;-80
2024/04/06 08:46:27;;;;;;;1.57;1.43;;;19.30;99.90;;;;;;5054302;28;20571;-83
2024/04/06 08:48:54;;;;;;;1.60;1.40;;;19.30;99.90;;;;;;5068769;28;20466;-82
2024/04/06 08:51:27;;;;;;;3.63;1.40;;;19.40;99.90;;;;;;5057243;28;21018;-81
2024/04/06 08:53:53;;;;;;;3.80;1.50;;;19.40;99.90;;;;;;5055443;28;20819;-84
2024/04/06 08:56:22;;;;;;;2.37;1.60;;;19.40;99.90;;;;;;5059480;28;20477;-82
2024/04/06 08:58:48;;;;;;;1.60;1.50;;;19.40;99.90;;;;;;5057425;28;20989;-84
2024/04/06 09:01:16;;;;;;;3.60;1.70;;;19.50;99.90;;;;;;5052803;28;21003;-81
2024/04/06 09:03:42;;;;;;;1.53;1.43;;;19.50;99.90;;;;;;5056357;28;21124;-79
2024/04/06 09:06:18;;;;;;;1.40;1.30;;;19.60;99.90;;;;;;5053137;28;20490;-82
2024/04/06 09:08:46;;;;;;;1.83;1.33;;;19.60;99.90;;;;;;5052267;28;20487;-82
2024/04/06 09:11:13;;;;;;;1.30;1.30;;;19.60;99.90;;;;;;5057038;28;20474;-82
2024/04/06 09:13:40;;;;;;;1.30;1.30;;;19.60;99.90;;;;;;5053756;28;20447;-81
2024/04/06 09:16:09;;;;;;;1.80;1.30;;;19.70;99.90;;;;;;5056560;28;21089;-81
2024/04/06 09:18:36;;;;;;;1.20;1.20;;;19.60;99.90;;;;;;5053864;28;21112;-81
2024/04/06 09:21:05;;;;;;;1.40;1.30;;;19.70;99.90;;;;;;5054232;28;20456;-81
2024/04/06 09:23:32;;;;;;;1.40;1.30;;;19.70;99.90;;;;;;5057034;28;20475;-81
2024/04/06 09:26:02;;;;;;;1.60;1.50;;;19.70;99.90;;;;;;5052903;28;20491;-80
2024/04/06 09:28:29;;;;;;;1.33;1.17;;;19.80;99.90;;;;;;5052296;28;20483;-80
2024/04/06 09:30:58;;;;;;;3.07;2.40;;;20.00;99.90;;;;;;5050880;28;20467;-82
2024/04/06 09:33:26;;;;;;;1.80;1.70;;;20.00;99.90;;;;;;5061701;28;20438;-81
2024/04/06 09:35:54;;;;;;;1.70;1.60;;;20.10;99.90;;;;;;5054434;28;20461;-81
2024/04/06 09:38:20;;;;;;;1.50;1.33;;;20.00;99.90;;;;;;5053842;28;20593;-81
2024/04/06 09:40:48;;;;;;;1.17;1.17;;;20.10;99.90;;;;;;5054547;28;20478;-80
2024/04/06 09:43:16;;;;;;;1.70;1.50;;;20.00;99.90;;;;;;5072352;28;20476;-81
2024/04/06 09:45:44;;;;;;;1.47;1.37;;;20.20;99.90;;;;;;5050795;28;20532;-81
2024/04/06 09:48:11;;;;;;;1.50;1.40;;;20.30;99.90;;;;;;5051982;28;20504;-82
2024/04/06 09:50:39;;;;;;;1.73;1.63;;;20.30;99.90;;;;;;5053257;28;21115;-81
2024/04/06 09:53:06;;;;;;;1.60;1.50;;;20.30;99.90;;;;;;5057764;28;20439;-79
2024/04/06 09:55:36;;;;;;;1.40;1.30;;;20.30;99.90;;;;;;5056277;28;20459;-82
2024/04/06 09:58:03;;;;;;;1.40;1.30;;;20.30;99.90;;;;;;5058690;28;20442;-81
2024/04/06 10:00:33;;;;;;;1.83;1.33;;;20.40;99.90;;;;;;5057425;28;21337;-84
2024/04/06 10:03:00;;;;;;;3.20;1.23;;;20.50;99.90;;;;;;5057983;28;20502;-80
2024/04/06 10:05:38;;;;;;;1.50;1.40;;;20.60;99.90;;;;;;5044291;28;20451;-83
2024/04/06 10:08:05;;;;;;;3.00;1.20;;;20.60;99.90;;;;;;5062981;28;20450;-81
2024/04/06 10:10:32;;;;;;;1.87;1.20;;;20.70;99.90;;;;;;5044156;28;21343;-80
2024/04/06 10:13:03;;;;;;;1.30;1.20;;;20.70;99.90;;;;;;5063444;28;20482;-83
2024/04/06 10:15:32;;;;;;;1.30;1.20;;;20.60;99.90;;;;;;5057461;28;20462;-80
2024/04/06 10:17:59;;;;;;;1.20;1.10;;;20.80;99.90;;;;;;5056310;28;20446;-82
2024/04/06 10:20:31;;;;;;;1.37;1.27;;;20.80;99.90;;;;;;5040316;28;21056;-79
2024/04/06 10:22:59;;;;;;;1.87;1.10;;;20.90;99.90;;;;;;5055368;28;20470;-80
2024/04/06 10:25:34;;;;;;;1.50;1.23;;;21.00;99.90;;;;;;5056604;28;20448;-79
2024/04/06 10:28:02;;;;;;;1.90;1.37;;;21.00;99.90;;;;;;5054309;28;21014;-81
2024/04/06 10:30:29;;;;;;;2.73;1.53;;;21.10;99.90;;;;;;5054680;28;20507;-80
2024/04/06 10:32:57;;;;;;;1.20;1.20;;;21.10;99.90;;;;;;5052946;28;20538;-80
2024/04/06 10:35:25;;;;;;;1.80;1.20;;;21.20;99.90;;;;;;5052558;28;20547;-81
2024/04/06 10:37:51;;;;;;;1.03;1.03;;;21.20;99.90;;;;;;5052081;28;20454;-82
2024/04/06 10:40:19;;;;;;;1.47;1.37;;;21.20;99.90;;;;;;5061394;28;20467;-81
2024/04/06 10:42:46;;;;;;;1.70;1.30;;;21.30;99.90;;;;;;5059405;28;20454;-80
2024/04/06 10:45:16;;;;;;;3.10;1.50;;;21.30;99.90;;;;;;5040116;28;20448;-79
2024/04/06 10:47:42;;;;;;;4.33;4.00;;;21.40;99.90;;;;;;5052639;28;20494;-78
2024/04/06 10:50:12;;;;;;;1.40;1.30;;;21.40;99.90;;;;;;5058264;28;20575;-79
2024/04/06 10:52:39;;;;;;;4.87;3.77;;;21.30;99.90;;;;;;5056132;28;20542;-79
2024/04/06 10:55:10;;;;;;;1.37;1.27;;;21.40;99.90;;;;;;5057827;28;20486;-78
2024/04/06 10:57:37;;;;;;;3.30;1.43;;;21.50;99.90;;;;;;5056723;28;20524;-79
2024/04/06 11:00:08;;;;;;;1.33;1.23;;;21.50;99.90;;;;;;5055094;28;21064;-78
2024/04/06 11:02:37;;;;;;;2.40;1.70;;;21.70;99.90;;;;;;5052697;28;20449;-80
2024/04/06 11:05:08;;;;;;;2.50;1.20;;;21.70;99.90;;;;;;5054240;28;20564;-79
2024/04/06 11:07:37;;;;;;;1.63;1.20;;;21.70;99.90;;;;;;5054421;28;20599;-79
2024/04/06 11:10:06;;;;;;;1.40;1.30;;;21.70;99.90;;;;;;5055921;28;20494;-79
2024/04/06 11:12:35;;;;;;;1.17;1.10;;;21.70;99.90;;;;;;5070007;28;20498;-78
2024/04/06 11:15:03;;;;;;;1.77;1.20;;;21.70;99.90;;;;;;5053816;28;20481;-78
2024/04/06 11:17:29;;;;;;;1.33;1.23;;;21.90;99.90;;;;;;5057410;28;20498;-78
2024/04/06 11:19:57;;;;;;;1.20;1.10;;;21.90;99.90;;;;;;5053903;28;20468;-81
2024/04/06 11:22:24;;;;;;;1.37;1.20;;;22.00;99.90;;;;;;5055571;28;20443;-79
2024/04/06 11:24:53;;;;;;;1.00;1.00;;;22.00;99.90;;;;;;5049510;28;21041;-78
2024/04/06 11:27:19;;;;;;;1.93;1.30;;;22.00;99.90;;;;;;5053690;28;20450;-80
2024/04/06 11:29:48;;;;;;;1.20;1.10;;;22.00;99.90;;;;;;5054082;28;20460;-78
2024/04/06 11:32:19;;;;;;;1.00;1.00;;;22.00;99.90;;;;;;5067591;28;20491;-81
2024/04/06 11:34:47;;;;;;;1.23;0.90;;;22.10;99.90;;;;;;5054586;28;20458;-78
2024/04/06 11:37:14;;;;;;;1.07;1.00;;;22.10;99.90;;;;;;5040022;28;20922;-79
2024/04/06 11:39:41;;;;;;;1.07;1.00;;;22.20;99.90;;;;;;5055295;28;20486;-79
2024/04/06 11:42:08;;;;;;;1.10;1.00;;;22.20;99.90;;;;;;5056068;28;20501;-78
2024/04/06 11:44:35;;;;;;;1.30;1.20;;;22.10;99.90;;;;;;5053922;28;20467;-80
2024/04/06 11:47:02;;;;;;;1.00;1.00;;;22.20;99.90;;;;;;5049206;28;20450;-80
2024/04/06 11:49:29;;;;;;;1.87;1.07;;;22.20;99.90;;;;;;5052756;28;21331;-80
2024/04/06 11:51:56;;;;;;;1.40;1.13;;;22.20;99.90;;;;;;5053522;28;20485;-80
2024/04/06 11:54:24;;;;;;;2.93;1.00;;;22.30;99.90;;;;;;5052476;28;20450;-81
2024/04/06 11:56:51;;;;;;;1.10;0.80;;;22.50;99.90;;;;;;5055454;28;20588;-81
2024/04/06 11:59:20;;;;;;;1.10;1.00;;;22.30;99.90;;;;;;5053697;28;20948;-80
2024/04/06 12:01:47;;;;;;;0.90;0.90;;;22.30;99.90;;;;;;5063753;28;20452;-82
2024/04/06 12:04:13;;;;;;;0.80;0.80;;;22.30;99.90;;;;;;5054101;28;20624;-80
2024/04/06 12:06:41;;;;;;;1.00;1.00;;;22.40;99.90;;;;;;5057223;28;20532;-81
2024/04/06 12:09:08;;;;;;;2.37;1.00;;;22.60;99.90;;;;;;5037500;28;20814;-81
2024/04/06 12:11:36;;;;;;;1.20;1.17;;;22.50;99.90;;;;;;5054622;28;20618;-81
2024/04/06 12:14:03;;;;;;;1.20;1.10;;;22.60;99.90;;;;;;5054684;28;20444;-80
2024/04/06 12:16:32;;;;;;;0.93;0.93;;;22.60;99.90;;;;;;5062370;28;20447;-80
2024/04/06 12:18:59;;;;;;;1.40;1.10;;;22.70;99.90;;;;;;5066995;28;20552;-80
2024/04/06 12:21:27;;;;;;;1.17;0.90;;;22.70;99.90;;;;;;5051276;28;20590;-80
2024/04/06 12:23:53;;;;;;;1.10;1.10;;;22.70;99.90;;;;;;5051974;28;20525;-79
2024/04/06 12:26:20;;;;;;;1.87;1.10;;;22.70;99.90;;;;;;5048950;28;20197;-80
2024/04/06 12:28:48;;;;;;;1.00;1.00;;;22.70;99.90;;;;;;5053745;28;20497;-83
2024/04/06 12:31:15;;;;;;;2.67;1.30;;;22.70;99.90;;;;;;5052143;28;20471;-82
2024/04/06 12:33:43;;;;;;;1.60;1.17;;;22.80;99.90;;;;;;5054484;28;20454;-80
2024/04/06 12:36:11;;;;;;;1.00;0.90;;;22.80;99.90;;;;;;5051521;28;20978;-81
2024/04/06 12:38:37;;;;;;;1.30;1.20;;;22.80;99.90;;;;;;5054886;28;20501;-80
2024/04/06 12:41:05;;;;;;;1.00;1.00;;;22.90;99.90;;;;;;5050775;28;20533;-82
2024/04/06 12:43:31;;;;;;;1.30;1.20;;;22.90;99.90;;;;;;5052704;28;20509;-80
2024/04/06 12:46:01;;;;;;;1.20;1.10;;;23.00;99.90;;;;;;5053505;28;20538;-80
2024/04/06 12:48:27;;;;;;;1.67;1.30;;;23.00;99.90;;;;;;5054387;28;20455;-82